createdAt,value
2018-07-27T00:02:25.169Z,4.22
2018-07-27T00:04:53.345Z,4.23
2018-07-27T00:07:21.608Z,4.40
2018-07-27T00:09:49.784Z,4.12
2018-07-27T00:12:17.946Z,4.37
2018-07-27T00:14:46.116Z,4.40
2018-07-27T00:17:14.044Z,4.10
2018-07-27T00:19:42.253Z,3.90
2018-07-27T00:22:10.421Z,3.80
2018-07-27T00:24:38.564Z,4.30
2018-07-27T00:27:06.777Z,4.27
2018-07-27T00:29:34.973Z,4.37
2018-07-27T00:32:03.141Z,4.23
2018-07-27T00:34:31.342Z,4.17
2018-07-27T00:36:59.513Z,4.77
2018-07-27T00:39:27.785Z,4.30
2018-07-27T00:41:55.978Z,4.63
2018-07-27T00:44:24.132Z,4.53
2018-07-27T00:46:52.306Z,4.50
2018-07-27T00:49:20.511Z,4.23
2018-07-27T00:51:48.687Z,4.10
2018-07-27T00:54:16.863Z,4.50
2018-07-27T00:56:45.040Z,4.27
2018-07-27T00:59:13.190Z,4.60
2018-07-27T01:01:41.342Z,4.30
2018-07-27T01:04:09.507Z,4.30
2018-07-27T01:06:37.716Z,4.03
2018-07-27T01:09:07.791Z,4.67
2018-07-27T01:11:35.975Z,4.60
2018-07-27T01:14:04.125Z,4.50
2018-07-27T01:16:32.274Z,4.23
2018-07-27T01:19:00.440Z,4.23
2018-07-27T01:21:28.618Z,4.20
2018-07-27T01:23:56.834Z,4.33
2018-07-27T01:26:25.015Z,4.50
2018-07-27T01:28:53.230Z,4.73
2018-07-27T01:31:21.435Z,4.23
2018-07-27T01:33:49.611Z,4.20
2018-07-27T01:36:17.783Z,4.77
2018-07-27T01:38:45.996Z,5.13
2018-07-27T01:41:14.186Z,4.30
2018-07-27T01:43:42.383Z,4.50
2018-07-27T01:46:10.676Z,4.67
2018-07-27T01:48:38.841Z,4.20
2018-07-27T01:51:07.103Z,4.70
2018-07-27T01:53:35.350Z,4.40
2018-07-27T01:56:03.483Z,4.13
2018-07-27T01:58:31.631Z,4.40
2018-07-27T02:00:59.795Z,4.17
2018-07-27T02:03:27.955Z,4.37
2018-07-27T02:05:56.117Z,4.47
2018-07-27T02:08:24.268Z,4.60
2018-07-27T02:10:52.451Z,4.63
2018-07-27T02:13:20.643Z,4.20
2018-07-27T02:15:48.844Z,4.53
2018-07-27T02:18:17.062Z,4.50
2018-07-27T02:20:45.220Z,4.50
2018-07-27T02:23:13.395Z,4.90
2018-07-27T02:25:41.568Z,4.87
2018-07-27T02:28:09.716Z,5.03
2018-07-27T02:30:37.888Z,4.93
2018-07-27T02:33:06.056Z,4.90
2018-07-27T02:35:34.268Z,5.00
2018-07-27T02:38:02.432Z,4.90
2018-07-27T02:40:30.601Z,5.00
2018-07-27T02:42:58.916Z,4.93
2018-07-27T02:45:27.100Z,4.87
2018-07-27T02:47:55.300Z,4.80
2018-07-27T02:50:23.208Z,5.00
2018-07-27T02:52:51.449Z,4.73
2018-07-27T02:55:19.621Z,4.73
2018-07-27T02:57:47.781Z,4.93
2018-07-27T03:00:15.956Z,6.53
2018-07-27T03:02:44.141Z,5.20
2018-07-27T03:05:12.368Z,5.00
2018-07-27T03:07:40.569Z,5.10
2018-07-27T03:10:08.765Z,5.43
2018-07-27T03:12:36.957Z,5.53
2018-07-27T03:15:06.160Z,5.40
2018-07-27T03:17:34.337Z,5.40
2018-07-27T03:20:02.535Z,4.57
2018-07-27T03:22:30.689Z,5.03
2018-07-27T03:24:58.884Z,4.70
2018-07-27T03:27:27.080Z,5.30
2018-07-27T03:29:54.996Z,4.70
2018-07-27T03:32:23.173Z,4.93
2018-07-27T03:34:51.360Z,5.30
2018-07-27T03:37:19.541Z,5.33
2018-07-27T03:39:47.709Z,4.70
2018-07-27T03:42:16.015Z,5.60
2018-07-27T03:44:44.110Z,5.07
2018-07-27T03:47:12.306Z,6.17
2018-07-27T03:49:40.482Z,5.27
2018-07-27T03:52:08.738Z,5.00
2018-07-27T03:54:36.929Z,5.27
2018-07-27T03:57:05.214Z,5.40
2018-07-27T03:59:33.366Z,5.07
2018-07-27T04:02:01.562Z,5.20
2018-07-27T04:04:29.706Z,4.97
2018-07-27T04:06:57.862Z,5.40
2018-07-27T04:09:26.055Z,5.60
2018-07-27T04:11:54.210Z,5.37
2018-07-27T04:14:22.373Z,5.27
2018-07-27T04:16:50.593Z,5.10
2018-07-27T04:19:18.761Z,7.50
2018-07-27T04:21:46.914Z,5.40
2018-07-27T04:24:15.105Z,5.13
2018-07-27T04:26:43.273Z,5.23
2018-07-27T04:29:13.171Z,5.23
2018-07-27T04:31:41.363Z,5.23
2018-07-27T04:34:09.526Z,5.17
2018-07-27T04:36:37.719Z,5.07
2018-07-27T04:39:08.348Z,5.00
2018-07-27T04:41:36.512Z,5.23
2018-07-27T04:44:04.700Z,5.20
2018-07-27T04:46:32.936Z,5.07
2018-07-27T04:49:01.102Z,5.50
2018-07-27T04:51:29.319Z,5.33
2018-07-27T04:53:57.544Z,5.40
2018-07-27T04:56:25.725Z,5.33
2018-07-27T04:58:53.889Z,6.10
2018-07-27T05:01:22.680Z,6.10
2018-07-27T05:03:50.845Z,5.30
2018-07-27T05:06:19.101Z,5.77
2018-07-27T05:08:52.681Z,5.67
2018-07-27T05:11:20.826Z,6.27
2018-07-27T05:13:48.736Z,5.70
2018-07-27T05:16:16.921Z,6.13
2018-07-27T05:18:45.147Z,5.70
2018-07-27T05:21:13.388Z,6.27
2018-07-27T05:23:41.629Z,5.80
2018-07-27T05:26:09.792Z,6.40
2018-07-27T05:28:37.958Z,6.07
2018-07-27T05:31:06.259Z,5.97
2018-07-27T05:33:34.467Z,7.20
2018-07-27T05:36:02.627Z,6.80
2018-07-27T05:38:30.827Z,7.03
2018-07-27T05:40:59.019Z,6.93
2018-07-27T05:43:27.307Z,6.90
2018-07-27T05:45:55.574Z,6.90
2018-07-27T05:48:23.827Z,7.57
2018-07-27T05:50:52.020Z,6.67
2018-07-27T05:53:20.188Z,6.40
2018-07-27T05:55:48.383Z,6.93
2018-07-27T05:58:16.541Z,6.73
2018-07-27T06:00:44.699Z,6.47
2018-07-27T06:03:12.920Z,5.97
2018-07-27T06:05:41.091Z,6.57
2018-07-27T06:08:09.291Z,6.50
2018-07-27T06:10:37.488Z,6.67
2018-07-27T06:13:05.804Z,6.77
2018-07-27T06:15:34.654Z,6.30
2018-07-27T06:18:03.018Z,6.07
2018-07-27T06:20:31.184Z,5.87
2018-07-27T06:22:59.381Z,5.17
2018-07-27T06:25:27.549Z,5.70
2018-07-27T06:27:55.732Z,5.63
2018-07-27T06:30:23.908Z,5.33
2018-07-27T06:32:52.105Z,5.70
2018-07-27T06:35:20.293Z,5.70
2018-07-27T06:37:48.505Z,5.50
2018-07-27T06:40:16.689Z,5.30
2018-07-27T06:42:44.866Z,5.57
2018-07-27T06:45:13.090Z,5.80
2018-07-27T06:47:41.258Z,5.60
2018-07-27T06:50:09.455Z,5.57
2018-07-27T06:52:37.690Z,5.80
2018-07-27T06:55:06.011Z,5.83
2018-07-27T06:57:34.188Z,5.67
2018-07-27T07:00:02.359Z,6.08
2018-07-27T07:02:30.563Z,6.15
2018-07-27T07:04:58.730Z,5.33
2018-07-27T07:07:26.891Z,5.40
2018-07-27T07:09:55.379Z,5.03
2018-07-27T07:12:23.556Z,6.05
2018-07-27T07:14:51.728Z,6.37
2018-07-27T07:17:19.919Z,5.90
2018-07-27T07:19:48.063Z,5.65
2018-07-27T07:22:16.265Z,5.53
2018-07-27T07:24:44.444Z,5.58
2018-07-27T07:27:12.712Z,5.65
2018-07-27T07:29:40.916Z,6.35
2018-07-27T07:32:09.113Z,5.40
2018-07-27T07:34:37.319Z,5.42
2018-07-27T07:37:05.544Z,5.33
2018-07-27T07:39:33.476Z,5.40
2018-07-27T07:42:02.022Z,5.50
2018-07-27T07:44:30.207Z,5.37
2018-07-27T07:46:58.364Z,5.47
2018-07-27T07:49:26.647Z,5.72
2018-07-27T07:51:54.804Z,5.12
2018-07-27T07:54:22.960Z,5.33
2018-07-27T07:56:51.155Z,5.22
2018-07-27T07:59:19.656Z,5.37
2018-07-27T08:01:47.843Z,5.70
2018-07-27T08:04:16.075Z,5.78
2018-07-27T08:06:44.227Z,5.97
2018-07-27T08:09:12.464Z,6.40
2018-07-27T08:11:40.672Z,6.92
2018-07-27T08:14:08.856Z,5.97
2018-07-27T08:16:37.041Z,6.35
2018-07-27T08:19:05.296Z,5.60
2018-07-27T08:21:33.520Z,5.17
2018-07-27T08:24:01.736Z,5.60
2018-07-27T08:26:43.041Z,5.03
2018-07-27T08:29:12.112Z,5.62
2018-07-27T08:31:41.689Z,6.10
2018-07-27T08:34:10.092Z,6.62
2018-07-27T08:36:38.275Z,5.17
2018-07-27T08:39:10.557Z,5.70
2018-07-27T08:41:39.252Z,6.25
2018-07-27T08:44:08.180Z,5.33
2018-07-27T08:46:36.557Z,5.40
2018-07-27T08:49:04.737Z,5.53
2018-07-27T08:51:33.036Z,5.67
2018-07-27T08:54:01.229Z,5.80
2018-07-27T08:56:29.430Z,5.95
2018-07-27T08:58:57.584Z,5.58
2018-07-27T09:01:25.765Z,5.12
2018-07-27T09:03:54.021Z,5.17
2018-07-27T09:06:22.229Z,5.35
2018-07-27T09:08:50.954Z,5.10
2018-07-27T09:11:19.506Z,4.90
2018-07-27T09:13:47.929Z,4.83
2018-07-27T09:16:16.118Z,4.92
2018-07-27T09:18:44.324Z,4.83
2018-07-27T09:21:12.557Z,4.85
2018-07-27T09:23:40.771Z,4.50
2018-07-27T09:26:08.945Z,4.50
2018-07-27T09:28:37.165Z,4.20
2018-07-27T09:31:05.410Z,5.28
2018-07-27T09:33:33.650Z,5.15
2018-07-27T09:36:01.947Z,4.58
2018-07-27T09:38:30.114Z,5.10
2018-07-27T09:40:58.310Z,4.40
2018-07-27T09:43:26.462Z,4.85
2018-07-27T09:45:54.645Z,4.55
2018-07-27T09:48:22.826Z,5.12
2018-07-27T09:50:50.997Z,4.70
2018-07-27T09:53:19.189Z,4.75
2018-07-27T09:55:47.353Z,5.12
2018-07-27T09:58:15.506Z,5.15
2018-07-27T10:00:49.310Z,4.72
2018-07-27T10:03:17.454Z,4.90
2018-07-27T10:05:45.664Z,4.87
2018-07-27T10:08:13.814Z,4.87
2018-07-27T10:10:42.089Z,5.00
2018-07-27T10:13:10.234Z,5.45
2018-07-27T10:15:38.442Z,4.80
2018-07-27T10:18:06.626Z,4.42
2018-07-27T10:20:34.607Z,4.90
2018-07-27T10:23:02.638Z,4.50
2018-07-27T10:25:31.829Z,4.20
2018-07-27T10:27:59.990Z,4.30
2018-07-27T10:30:28.482Z,4.17
2018-07-27T10:32:56.659Z,4.12
2018-07-27T10:35:24.815Z,4.67
2018-07-27T10:37:53.054Z,4.30
2018-07-27T10:40:21.223Z,4.00
2018-07-27T10:42:50.410Z,3.90
2018-07-27T10:45:18.598Z,4.08
2018-07-27T10:47:47.799Z,4.30
2018-07-27T10:50:16.031Z,4.10
2018-07-27T10:52:44.219Z,4.60
2018-07-27T10:55:12.419Z,4.58
2018-07-27T10:57:40.574Z,4.15
2018-07-27T11:00:12.039Z,3.60
2018-07-27T11:02:40.407Z,3.87
2018-07-27T11:05:08.776Z,3.52
2018-07-27T11:07:36.947Z,3.92
2018-07-27T11:10:05.742Z,3.75
2018-07-27T11:12:34.035Z,3.60
2018-07-27T11:15:02.191Z,3.80
2018-07-27T11:17:30.388Z,3.90
2018-07-27T11:19:58.488Z,3.50
2018-07-27T11:22:26.683Z,3.47
2018-07-27T11:24:54.883Z,3.42
2018-07-27T11:27:23.140Z,3.10
2018-07-27T11:29:51.351Z,3.40
2018-07-27T11:32:19.511Z,2.85
2018-07-27T11:34:47.680Z,3.52
2018-07-27T11:37:15.863Z,3.00
2018-07-27T11:39:44.015Z,3.22
2018-07-27T11:42:12.235Z,3.25
2018-07-27T11:44:40.360Z,3.50
2018-07-27T11:47:08.556Z,3.37
2018-07-27T11:49:43.260Z,3.37
2018-07-27T11:52:11.419Z,3.20
2018-07-27T11:54:39.591Z,3.83
2018-07-27T11:57:07.743Z,3.40
2018-07-27T11:59:35.939Z,4.03
2018-07-27T12:02:04.147Z,3.47
2018-07-27T12:04:32.305Z,3.80
2018-07-27T12:07:00.731Z,3.35
2018-07-27T12:09:28.891Z,3.12
2018-07-27T12:11:57.102Z,3.70
2018-07-27T12:14:25.406Z,3.70
2018-07-27T12:16:53.449Z,3.83
2018-07-27T12:19:21.694Z,3.65
2018-07-27T12:21:49.922Z,4.80
2018-07-27T12:24:18.082Z,3.72
2018-07-27T12:26:46.285Z,3.47
2018-07-27T12:29:14.466Z,3.50
2018-07-27T12:31:42.614Z,3.90
2018-07-27T12:34:10.841Z,3.55
2018-07-27T12:36:39.010Z,3.60
2018-07-27T12:39:09.822Z,3.50
2018-07-27T12:41:38.759Z,3.90
2018-07-27T12:44:06.915Z,3.35
2018-07-27T12:46:35.251Z,4.65
2018-07-27T12:49:03.459Z,4.28
2018-07-27T12:51:31.634Z,3.40
2018-07-27T12:53:59.792Z,3.35
2018-07-27T12:56:28.374Z,3.10
2018-07-27T12:58:56.627Z,3.12
2018-07-27T13:01:25.591Z,3.22
2018-07-27T13:03:53.931Z,2.92
2018-07-27T13:06:22.266Z,2.70
2018-07-27T13:08:50.435Z,3.00
2018-07-27T13:11:18.606Z,2.92
2018-07-27T13:13:46.780Z,2.90
2018-07-27T13:16:15.103Z,3.50
2018-07-27T13:18:43.355Z,3.30
2018-07-27T13:21:11.571Z,3.30
2018-07-27T13:23:50.027Z,3.50
2018-07-27T13:26:25.181Z,3.20
2018-07-27T13:28:46.416Z,2.60
2018-07-27T13:31:14.615Z,2.62
2018-07-27T13:34:55.107Z,3.20
2018-07-27T13:37:24.550Z,3.33
2018-07-27T13:42:23.571Z,3.62
2018-07-27T13:44:51.739Z,3.55
2018-07-27T13:47:20.344Z,3.42
2018-07-27T13:49:48.536Z,3.25
2018-07-27T13:52:16.711Z,3.20
2018-07-27T13:54:44.949Z,3.90
2018-07-27T13:57:13.129Z,3.37
2018-07-27T13:59:41.303Z,3.35
2018-07-27T14:02:09.479Z,3.67
2018-07-27T14:04:37.756Z,3.50
2018-07-27T14:07:06.768Z,3.70
2018-07-27T14:09:34.981Z,3.80
2018-07-27T14:12:03.168Z,3.77
2018-07-27T14:14:31.427Z,4.15
2018-07-27T14:16:59.612Z,3.83
2018-07-27T14:19:28.620Z,4.15
2018-07-27T14:21:56.564Z,4.22
2018-07-27T14:24:24.816Z,4.15
2018-07-27T14:26:53.067Z,4.08
2018-07-27T14:29:21.286Z,3.85
2018-07-27T14:31:49.436Z,4.42
2018-07-27T14:34:17.652Z,4.17
2018-07-27T14:36:45.853Z,3.85
2018-07-27T14:39:15.304Z,4.22
2018-07-27T14:41:43.822Z,4.22
2018-07-27T14:44:12.151Z,4.80
2018-07-27T14:46:40.468Z,4.15
2018-07-27T14:49:10.318Z,4.28
2018-07-27T14:51:38.920Z,3.92
2018-07-27T14:54:07.868Z,4.30
2018-07-27T14:56:36.104Z,4.42
2018-07-27T14:59:04.361Z,4.15
2018-07-27T15:01:32.569Z,4.30
2018-07-27T15:04:00.768Z,4.67
2018-07-27T15:06:28.936Z,4.30
2018-07-27T15:08:57.097Z,4.40
2018-07-27T15:11:25.365Z,4.53
2018-07-27T15:13:53.564Z,4.50
2018-07-27T15:16:21.793Z,7.70
2018-07-27T15:18:49.929Z,4.70
2018-07-27T15:23:52.666Z,4.50
2018-07-27T15:26:20.916Z,4.15
2018-07-27T15:28:49.234Z,4.50
2018-07-27T15:31:17.466Z,4.47
2018-07-27T15:33:46.417Z,4.10
2018-07-27T15:36:14.634Z,4.33
2018-07-27T15:38:42.806Z,4.45
2018-07-27T15:41:11.000Z,4.42
2018-07-27T15:43:39.246Z,4.75
2018-07-27T15:46:07.445Z,4.45
2018-07-27T15:48:35.785Z,4.50
2018-07-27T15:51:03.937Z,4.58
2018-07-27T15:53:32.182Z,4.30
2018-07-27T15:56:00.394Z,4.92
2018-07-27T15:58:28.530Z,4.37
2018-07-27T16:00:56.511Z,4.47
2018-07-27T16:03:24.466Z,4.28
2018-07-27T16:05:52.482Z,4.30
2018-07-27T16:08:20.505Z,3.92
2018-07-27T16:10:48.529Z,4.22
2018-07-27T16:13:16.490Z,4.50
2018-07-27T16:15:44.434Z,4.40
2018-07-27T16:18:12.382Z,4.40
2018-07-27T16:20:40.466Z,4.33
2018-07-27T16:23:08.435Z,4.30
2018-07-27T16:25:36.406Z,4.35
2018-07-27T16:28:04.387Z,3.85
2018-07-27T16:30:32.319Z,4.20
2018-07-27T16:33:00.336Z,4.10
2018-07-27T16:35:28.303Z,3.72
2018-07-27T16:37:56.243Z,3.90
2018-07-27T16:40:24.256Z,4.28
2018-07-27T16:42:52.260Z,4.10
2018-07-27T16:45:20.203Z,4.33
2018-07-27T16:47:48.183Z,3.98
2018-07-27T16:50:16.142Z,4.60
2018-07-27T16:52:44.088Z,4.45
2018-07-27T16:55:12.103Z,4.67
2018-07-27T16:57:40.036Z,4.33
2018-07-27T17:00:08.040Z,4.62
2018-07-27T17:02:35.968Z,4.42
2018-07-27T17:05:03.925Z,4.40
2018-07-27T17:07:31.894Z,4.33
2018-07-27T17:09:59.819Z,4.55
2018-07-27T17:12:27.780Z,4.35
2018-07-27T17:14:55.718Z,4.45
2018-07-27T17:17:23.672Z,4.35
2018-07-27T17:19:51.642Z,5.05
2018-07-27T17:22:19.593Z,5.08
2018-07-27T17:24:51.217Z,4.60
2018-07-27T17:27:19.338Z,4.53
2018-07-27T17:29:47.261Z,4.58
2018-07-27T17:32:15.221Z,4.70
2018-07-27T17:34:43.166Z,5.08
2018-07-27T17:37:11.118Z,5.03
2018-07-27T17:39:39.043Z,4.97
2018-07-27T17:42:07.114Z,5.08
2018-07-27T17:44:35.071Z,5.20
2018-07-27T17:47:03.022Z,5.10
2018-07-27T17:49:30.970Z,5.20
2018-07-27T17:51:58.901Z,5.20
2018-07-27T17:54:26.915Z,5.20
2018-07-27T17:56:54.870Z,5.40
2018-07-27T17:59:22.870Z,4.97
2018-07-27T18:01:50.805Z,5.12
2018-07-27T18:04:18.746Z,5.15
2018-07-27T18:06:46.668Z,5.17
2018-07-27T18:09:14.595Z,5.12
2018-07-27T18:11:42.570Z,5.10
2018-07-27T18:14:10.726Z,5.50
2018-07-27T18:16:38.655Z,4.92
2018-07-27T18:19:06.883Z,5.10
2018-07-27T18:21:34.759Z,5.25
2018-07-27T18:24:02.667Z,5.55
2018-07-27T18:26:30.615Z,4.85
2018-07-27T18:28:58.563Z,5.15
2018-07-27T18:31:26.487Z,5.58
2018-07-27T18:33:54.436Z,5.40
2018-07-27T18:36:22.380Z,5.10
2018-07-27T18:38:50.355Z,4.95
2018-07-27T18:41:18.330Z,5.05
2018-07-27T18:43:46.285Z,5.97
2018-07-27T18:46:14.242Z,5.87
2018-07-27T18:48:42.201Z,5.33
2018-07-27T18:51:10.113Z,5.33
2018-07-27T18:53:38.086Z,5.42
2018-07-27T18:56:06.013Z,5.78
2018-07-27T18:58:33.934Z,5.65
2018-07-27T19:01:01.873Z,5.72
2018-07-27T19:03:30.057Z,5.47
2018-07-27T19:05:58.026Z,5.90
2018-07-27T19:08:26.265Z,5.50
2018-07-27T19:10:54.532Z,5.58
2018-07-27T19:13:22.859Z,5.28
2018-07-27T19:15:51.051Z,5.30
2018-07-27T19:18:19.273Z,5.40
2018-07-27T19:20:47.552Z,5.50
2018-07-27T19:23:15.784Z,5.62
2018-07-27T19:25:44.013Z,5.12
2018-07-27T19:28:12.278Z,5.50
2018-07-27T19:30:40.366Z,5.83
2018-07-27T19:33:08.326Z,6.10
2018-07-27T19:35:36.265Z,5.30
2018-07-27T19:38:04.213Z,6.00
2018-07-27T19:40:32.278Z,5.58
2018-07-27T19:43:00.257Z,5.72
2018-07-27T19:45:28.186Z,5.15
2018-07-27T19:47:56.195Z,5.30
2018-07-27T19:50:24.587Z,5.50
2018-07-27T19:52:52.679Z,5.55
2018-07-27T19:55:20.647Z,5.60
2018-07-27T19:57:48.555Z,5.53
2018-07-27T20:00:16.524Z,5.40
2018-07-27T20:02:44.476Z,6.08
2018-07-27T20:05:12.848Z,6.50
2018-07-27T20:07:40.799Z,5.62
2018-07-27T20:10:09.067Z,5.60
2018-07-27T20:12:37.019Z,6.22
2018-07-27T20:15:05.020Z,6.28
2018-07-27T20:17:33.024Z,5.83
2018-07-27T20:20:00.971Z,6.03
2018-07-27T20:22:28.931Z,5.95
2018-07-27T20:24:56.944Z,6.58
2018-07-27T20:27:24.884Z,5.65
2018-07-27T20:29:53.120Z,6.30
2018-07-27T20:32:21.040Z,6.30
2018-07-27T20:34:49.288Z,6.45
2018-07-27T20:37:17.264Z,6.28
2018-07-27T20:39:45.203Z,6.55
2018-07-27T20:42:13.112Z,6.78
2018-07-27T20:44:41.044Z,6.97
2018-07-27T20:47:09.393Z,7.00
2018-07-27T20:49:37.453Z,7.17
2018-07-27T20:52:05.437Z,7.25
2018-07-27T20:54:33.393Z,7.35
2018-07-27T20:57:01.370Z,7.15
2018-07-27T20:59:29.270Z,7.30
2018-07-27T21:01:57.229Z,6.70
2018-07-27T21:04:25.207Z,6.90
2018-07-27T21:06:53.069Z,6.83
2018-07-27T21:09:21.014Z,8.07
2018-07-27T21:11:48.933Z,7.53
2018-07-27T21:14:16.893Z,7.47
2018-07-27T21:16:44.874Z,6.97
2018-07-27T21:19:12.782Z,7.35
2018-07-27T21:21:40.721Z,7.50
2018-07-27T21:24:09.722Z,7.17
2018-07-27T21:26:37.645Z,6.90
2018-07-27T21:29:05.589Z,7.42
2018-07-27T21:31:33.528Z,7.12
2018-07-27T21:34:01.440Z,7.70
2018-07-27T21:36:29.414Z,7.45
2018-07-27T21:38:57.530Z,6.92
2018-07-27T21:41:25.370Z,7.22
2018-07-27T21:43:53.529Z,7.42
2018-07-27T21:46:21.510Z,7.12
2018-07-27T21:48:49.446Z,7.25
2018-07-27T21:51:17.392Z,7.40
2018-07-27T21:53:45.398Z,7.08
2018-07-27T21:56:13.309Z,6.90
2018-07-27T21:58:41.242Z,7.20
2018-07-27T22:01:09.947Z,6.92
2018-07-27T22:03:37.875Z,7.00
2018-07-27T22:06:06.092Z,6.45
2018-07-27T22:08:34.044Z,7.28
2018-07-27T22:11:01.965Z,6.80
2018-07-27T22:13:29.894Z,6.87
2018-07-27T22:15:57.815Z,6.62
2018-07-27T22:18:25.737Z,6.80
2018-07-27T22:20:53.666Z,7.83
2018-07-27T22:23:21.600Z,6.03
2018-07-27T22:25:49.547Z,6.75
2018-07-27T22:28:17.492Z,7.00
2018-07-27T22:30:45.424Z,6.50
2018-07-27T22:33:13.363Z,6.40
2018-07-27T22:35:41.289Z,6.90
2018-07-27T22:38:09.981Z,6.75
2018-07-27T22:40:37.956Z,6.25
2018-07-27T22:43:05.902Z,6.15
2018-07-27T22:45:33.860Z,6.58
2018-07-27T22:48:01.814Z,6.25
2018-07-27T22:50:29.737Z,6.17
2018-07-27T22:52:57.702Z,6.13
2018-07-27T22:55:25.667Z,6.65
2018-07-27T22:57:53.593Z,6.40
2018-07-27T23:00:21.585Z,6.90
2018-07-27T23:02:49.529Z,6.45
2018-07-27T23:05:17.450Z,6.00
2018-07-27T23:07:45.393Z,6.37
2018-07-27T23:10:13.347Z,6.57
2018-07-27T23:12:41.294Z,6.37
2018-07-27T23:15:10.917Z,6.33
2018-07-27T23:17:39.001Z,5.80
2018-07-27T23:20:07.906Z,6.00
2018-07-27T23:22:35.845Z,6.07
2018-07-27T23:25:04.182Z,4.53
2018-07-27T23:27:32.141Z,5.70
2018-07-27T23:30:00.066Z,6.00
2018-07-27T23:32:28.109Z,6.00
2018-07-27T23:34:56.019Z,6.00
2018-07-27T23:37:23.950Z,5.93
2018-07-27T23:39:51.886Z,5.87
2018-07-27T23:42:19.810Z,5.67
2018-07-27T23:44:47.798Z,5.80
2018-07-27T23:47:15.722Z,5.83
2018-07-27T23:49:43.639Z,5.80
2018-07-27T23:52:11.602Z,5.80
2018-07-27T23:54:39.530Z,5.40
2018-07-27T23:57:07.475Z,5.67
2018-07-27T23:59:35.420Z,5.60
